sensor_id;sensor_type;location;lat;lon;timestamp;P1;durP1;ratioP1;P2;durP2;ratioP2
57593;SDS011;43423;46.510;6.686;2023-07-09T00:01:15;12.90;;;4.97;;
57593;SDS011;43423;46.510;6.686;2023-07-09T00:03:46;9.05;;;4.68;;
57593;SDS011;43423;46.510;6.686;2023-07-09T00:06:17;12.70;;;4.97;;
57593;SDS011;43423;46.510;6.686;2023-07-09T00:08:43;8.40;;;4.68;;
57593;SDS011;43423;46.510;6.686;2023-07-09T00:11:13;10.37;;;4.87;;
57593;SDS011;43423;46.510;6.686;2023-07-09T00:13:40;8.38;;;4.70;;
57593;SDS011;43423;46.510;6.686;2023-07-09T00:16:23;10.93;;;4.68;;
57593;SDS011;43423;46.510;6.686;2023-07-09T00:18:50;8.68;;;4.80;;
57593;SDS011;43423;46.510;6.686;2023-07-09T00:21:17;10.57;;;5.20;;
57593;SDS011;43423;46.510;6.686;2023-07-09T00:23:45;8.02;;;4.82;;
57593;SDS011;43423;46.510;6.686;2023-07-09T00:26:14;12.18;;;4.60;;
57593;SDS011;43423;46.510;6.686;2023-07-09T00:28:41;9.88;;;4.63;;
57593;SDS011;43423;46.510;6.686;2023-07-09T00:31:11;11.45;;;4.85;;
57593;SDS011;43423;46.510;6.686;2023-07-09T00:33:38;11.93;;;5.32;;
57593;SDS011;43423;46.510;6.686;2023-07-09T00:36:04;11.02;;;5.25;;
57593;SDS011;43423;46.510;6.686;2023-07-09T00:38:39;10.75;;;4.70;;
57593;SDS011;43423;46.510;6.686;2023-07-09T00:41:08;12.35;;;5.60;;
57593;SDS011;43423;46.510;6.686;2023-07-09T00:43:43;10.93;;;4.50;;
57593;SDS011;43423;46.510;6.686;2023-07-09T00:48:57;11.23;;;5.00;;
57593;SDS011;43423;46.510;6.686;2023-07-09T00:51:26;12.13;;;5.10;;
57593;SDS011;43423;46.510;6.686;2023-07-09T00:53:54;9.45;;;5.43;;
57593;SDS011;43423;46.510;6.686;2023-07-09T00:56:25;12.23;;;5.85;;
57593;SDS011;43423;46.510;6.686;2023-07-09T00:58:55;10.82;;;5.18;;
57593;SDS011;43423;46.510;6.686;2023-07-09T01:01:26;11.38;;;5.07;;
57593;SDS011;43423;46.510;6.686;2023-07-09T01:03:53;9.00;;;5.07;;
57593;SDS011;43423;46.510;6.686;2023-07-09T01:06:31;9.82;;;4.75;;
57593;SDS011;43423;46.510;6.686;2023-07-09T01:09:02;9.40;;;5.40;;
57593;SDS011;43423;46.510;6.686;2023-07-09T01:11:28;10.10;;;5.40;;
57593;SDS011;43423;46.510;6.686;2023-07-09T01:13:57;9.80;;;5.63;;
57593;SDS011;43423;46.510;6.686;2023-07-09T01:16:25;13.38;;;5.55;;
57593;SDS011;43423;46.510;6.686;2023-07-09T01:18:54;10.35;;;5.65;;
57593;SDS011;43423;46.510;6.686;2023-07-09T01:21:20;10.98;;;5.85;;
57593;SDS011;43423;46.510;6.686;2023-07-09T01:23:47;11.13;;;5.75;;
57593;SDS011;43423;46.510;6.686;2023-07-09T01:26:15;13.77;;;5.82;;
57593;SDS011;43423;46.510;6.686;2023-07-09T01:28:44;10.88;;;6.40;;
57593;SDS011;43423;46.510;6.686;2023-07-09T01:31:11;17.13;;;7.22;;
57593;SDS011;43423;46.510;6.686;2023-07-09T01:33:42;10.90;;;5.40;;
57593;SDS011;43423;46.510;6.686;2023-07-09T01:36:10;11.23;;;5.15;;
57593;SDS011;43423;46.510;6.686;2023-07-09T01:38:42;9.43;;;4.15;;
57593;SDS011;43423;46.510;6.686;2023-07-09T01:41:08;13.38;;;4.40;;
57593;SDS011;43423;46.510;6.686;2023-07-09T01:43:40;8.43;;;4.50;;
57593;SDS011;43423;46.510;6.686;2023-07-09T01:46:07;10.27;;;5.13;;
57593;SDS011;43423;46.510;6.686;2023-07-09T01:48:34;13.02;;;5.53;;
57593;SDS011;43423;46.510;6.686;2023-07-09T01:51:09;12.18;;;4.47;;
57593;SDS011;43423;46.510;6.686;2023-07-09T01:53:36;9.65;;;4.72;;
57593;SDS011;43423;46.510;6.686;2023-07-09T01:56:04;10.07;;;5.03;;
57593;SDS011;43423;46.510;6.686;2023-07-09T01:58:33;8.05;;;4.72;;
57593;SDS011;43423;46.510;6.686;2023-07-09T02:00:59;9.85;;;4.38;;
57593;SDS011;43423;46.510;6.686;2023-07-09T02:03:25;10.68;;;4.32;;
57593;SDS011;43423;46.510;6.686;2023-07-09T02:05:53;9.27;;;4.82;;
57593;SDS011;43423;46.510;6.686;2023-07-09T02:08:20;9.38;;;4.53;;
57593;SDS011;43423;46.510;6.686;2023-07-09T02:10:49;12.15;;;5.22;;
57593;SDS011;43423;46.510;6.686;2023-07-09T02:13:15;15.23;;;5.55;;
57593;SDS011;43423;46.510;6.686;2023-07-09T02:15:42;12.05;;;4.65;;
57593;SDS011;43423;46.510;6.686;2023-07-09T02:18:09;13.20;;;4.78;;
57593;SDS011;43423;46.510;6.686;2023-07-09T02:20:35;11.73;;;4.53;;
57593;SDS011;43423;46.510;6.686;2023-07-09T02:23:01;9.88;;;4.82;;
57593;SDS011;43423;46.510;6.686;2023-07-09T02:25:27;10.55;;;4.38;;
57593;SDS011;43423;46.510;6.686;2023-07-09T02:27:53;7.93;;;4.32;;
57593;SDS011;43423;46.510;6.686;2023-07-09T02:30:18;11.27;;;4.57;;
57593;SDS011;43423;46.510;6.686;2023-07-09T02:32:44;13.90;;;5.07;;
57593;SDS011;43423;46.510;6.686;2023-07-09T02:35:10;11.75;;;4.78;;
57593;SDS011;43423;46.510;6.686;2023-07-09T02:37:36;10.55;;;4.43;;
57593;SDS011;43423;46.510;6.686;2023-07-09T02:40:02;12.10;;;4.10;;
57593;SDS011;43423;46.510;6.686;2023-07-09T02:42:29;11.32;;;4.30;;
57593;SDS011;43423;46.510;6.686;2023-07-09T02:44:54;10.02;;;4.60;;
57593;SDS011;43423;46.510;6.686;2023-07-09T02:47:20;12.05;;;4.82;;
57593;SDS011;43423;46.510;6.686;2023-07-09T02:49:46;7.47;;;4.40;;
57593;SDS011;43423;46.510;6.686;2023-07-09T02:52:12;10.48;;;4.93;;
57593;SDS011;43423;46.510;6.686;2023-07-09T02:54:37;12.07;;;5.53;;
57593;SDS011;43423;46.510;6.686;2023-07-09T02:57:03;8.57;;;4.88;;
57593;SDS011;43423;46.510;6.686;2023-07-09T02:59:29;11.85;;;5.07;;
57593;SDS011;43423;46.510;6.686;2023-07-09T03:01:55;8.40;;;4.88;;
57593;SDS011;43423;46.510;6.686;2023-07-09T03:04:21;8.82;;;4.70;;
57593;SDS011;43423;46.510;6.686;2023-07-09T03:06:47;10.05;;;5.43;;
57593;SDS011;43423;46.510;6.686;2023-07-09T03:09:12;10.38;;;4.47;;
57593;SDS011;43423;46.510;6.686;2023-07-09T03:11:38;11.20;;;5.57;;
57593;SDS011;43423;46.510;6.686;2023-07-09T03:14:04;11.52;;;5.03;;
57593;SDS011;43423;46.510;6.686;2023-07-09T03:16:31;12.98;;;4.95;;
57593;SDS011;43423;46.510;6.686;2023-07-09T03:18:59;13.48;;;4.63;;
57593;SDS011;43423;46.510;6.686;2023-07-09T03:21:25;9.95;;;4.90;;
57593;SDS011;43423;46.510;6.686;2023-07-09T03:23:53;7.55;;;4.63;;
57593;SDS011;43423;46.510;6.686;2023-07-09T03:26:19;13.32;;;5.47;;
57593;SDS011;43423;46.510;6.686;2023-07-09T03:28:45;12.98;;;4.90;;
57593;SDS011;43423;46.510;6.686;2023-07-09T03:31:11;11.48;;;5.10;;
57593;SDS011;43423;46.510;6.686;2023-07-09T03:33:37;12.00;;;4.80;;
57593;SDS011;43423;46.510;6.686;2023-07-09T03:36:03;12.40;;;5.45;;
57593;SDS011;43423;46.510;6.686;2023-07-09T03:38:29;18.80;;;5.25;;
57593;SDS011;43423;46.510;6.686;2023-07-09T03:40:56;11.52;;;4.75;;
57593;SDS011;43423;46.510;6.686;2023-07-09T03:43:22;12.73;;;5.78;;
57593;SDS011;43423;46.510;6.686;2023-07-09T03:45:48;12.95;;;4.60;;
57593;SDS011;43423;46.510;6.686;2023-07-09T03:48:15;11.98;;;4.90;;
57593;SDS011;43423;46.510;6.686;2023-07-09T03:50:43;8.35;;;4.78;;
57593;SDS011;43423;46.510;6.686;2023-07-09T03:53:10;9.57;;;4.82;;
57593;SDS011;43423;46.510;6.686;2023-07-09T03:55:36;11.05;;;5.60;;
57593;SDS011;43423;46.510;6.686;2023-07-09T03:58:02;10.52;;;5.22;;
57593;SDS011;43423;46.510;6.686;2023-07-09T04:00:28;11.27;;;5.35;;
57593;SDS011;43423;46.510;6.686;2023-07-09T04:02:54;9.85;;;5.03;;
57593;SDS011;43423;46.510;6.686;2023-07-09T04:05:22;8.50;;;4.97;;
57593;SDS011;43423;46.510;6.686;2023-07-09T04:07:48;9.15;;;5.13;;
57593;SDS011;43423;46.510;6.686;2023-07-09T04:10:15;10.02;;;5.35;;
57593;SDS011;43423;46.510;6.686;2023-07-09T04:12:41;13.05;;;5.32;;
57593;SDS011;43423;46.510;6.686;2023-07-09T04:15:07;11.25;;;5.03;;
57593;SDS011;43423;46.510;6.686;2023-07-09T04:17:33;11.30;;;4.93;;
57593;SDS011;43423;46.510;6.686;2023-07-09T04:19:59;11.93;;;5.20;;
57593;SDS011;43423;46.510;6.686;2023-07-09T04:22:25;11.75;;;5.28;;
57593;SDS011;43423;46.510;6.686;2023-07-09T04:24:50;11.20;;;5.25;;
57593;SDS011;43423;46.510;6.686;2023-07-09T04:27:17;13.75;;;5.47;;
57593;SDS011;43423;46.510;6.686;2023-07-09T04:29:43;12.75;;;5.07;;
57593;SDS011;43423;46.510;6.686;2023-07-09T04:32:13;10.55;;;4.93;;
57593;SDS011;43423;46.510;6.686;2023-07-09T04:34:40;8.38;;;4.97;;
57593;SDS011;43423;46.510;6.686;2023-07-09T04:37:07;12.50;;;4.70;;
57593;SDS011;43423;46.510;6.686;2023-07-09T04:39:34;11.93;;;5.13;;
57593;SDS011;43423;46.510;6.686;2023-07-09T04:42:00;10.48;;;4.57;;
57593;SDS011;43423;46.510;6.686;2023-07-09T04:44:26;11.75;;;5.38;;
57593;SDS011;43423;46.510;6.686;2023-07-09T04:46:52;12.65;;;5.15;;
57593;SDS011;43423;46.510;6.686;2023-07-09T04:49:17;12.80;;;5.05;;
57593;SDS011;43423;46.510;6.686;2023-07-09T04:51:43;11.15;;;4.72;;
57593;SDS011;43423;46.510;6.686;2023-07-09T04:54:09;8.07;;;4.35;;
57593;SDS011;43423;46.510;6.686;2023-07-09T04:56:34;14.18;;;5.95;;
57593;SDS011;43423;46.510;6.686;2023-07-09T04:59:02;9.50;;;4.78;;
57593;SDS011;43423;46.510;6.686;2023-07-09T05:01:27;12.93;;;4.88;;
57593;SDS011;43423;46.510;6.686;2023-07-09T05:03:53;16.17;;;5.20;;
57593;SDS011;43423;46.510;6.686;2023-07-09T05:06:19;11.02;;;5.00;;
57593;SDS011;43423;46.510;6.686;2023-07-09T05:08:46;10.45;;;5.35;;
57593;SDS011;43423;46.510;6.686;2023-07-09T05:11:13;9.52;;;5.15;;
57593;SDS011;43423;46.510;6.686;2023-07-09T05:13:40;10.98;;;5.05;;
57593;SDS011;43423;46.510;6.686;2023-07-09T05:16:05;10.00;;;4.95;;
57593;SDS011;43423;46.510;6.686;2023-07-09T05:18:31;15.32;;;5.18;;
57593;SDS011;43423;46.510;6.686;2023-07-09T05:20:57;9.63;;;4.95;;
57593;SDS011;43423;46.510;6.686;2023-07-09T05:23:24;9.90;;;5.30;;
57593;SDS011;43423;46.510;6.686;2023-07-09T05:25:55;9.73;;;4.63;;
57593;SDS011;43423;46.510;6.686;2023-07-09T05:28:22;10.30;;;5.20;;
57593;SDS011;43423;46.510;6.686;2023-07-09T05:30:47;10.45;;;4.95;;
57593;SDS011;43423;46.510;6.686;2023-07-09T05:33:13;10.10;;;5.03;;
57593;SDS011;43423;46.510;6.686;2023-07-09T05:35:39;11.65;;;5.20;;
57593;SDS011;43423;46.510;6.686;2023-07-09T05:38:04;12.43;;;5.65;;
57593;SDS011;43423;46.510;6.686;2023-07-09T05:40:30;12.10;;;5.05;;
57593;SDS011;43423;46.510;6.686;2023-07-09T05:42:56;9.15;;;5.38;;
57593;SDS011;43423;46.510;6.686;2023-07-09T05:45:21;11.27;;;5.25;;
57593;SDS011;43423;46.510;6.686;2023-07-09T05:47:47;11.18;;;5.55;;
57593;SDS011;43423;46.510;6.686;2023-07-09T05:50:13;10.25;;;5.00;;
57593;SDS011;43423;46.510;6.686;2023-07-09T05:52:38;10.43;;;5.40;;
57593;SDS011;43423;46.510;6.686;2023-07-09T05:55:04;9.18;;;5.35;;
57593;SDS011;43423;46.510;6.686;2023-07-09T05:57:30;10.15;;;5.60;;
57593;SDS011;43423;46.510;6.686;2023-07-09T05:59:55;8.57;;;5.38;;
57593;SDS011;43423;46.510;6.686;2023-07-09T06:02:21;12.43;;;5.03;;
57593;SDS011;43423;46.510;6.686;2023-07-09T06:04:47;7.53;;;4.90;;
57593;SDS011;43423;46.510;6.686;2023-07-09T06:07:16;10.23;;;5.43;;
57593;SDS011;43423;46.510;6.686;2023-07-09T06:09:43;7.28;;;4.85;;
57593;SDS011;43423;46.510;6.686;2023-07-09T06:12:11;12.40;;;5.55;;
57593;SDS011;43423;46.510;6.686;2023-07-09T06:14:37;10.70;;;5.50;;
57593;SDS011;43423;46.510;6.686;2023-07-09T06:17:03;10.52;;;5.43;;
57593;SDS011;43423;46.510;6.686;2023-07-09T06:19:29;10.43;;;6.00;;
57593;SDS011;43423;46.510;6.686;2023-07-09T06:21:54;9.25;;;5.82;;
57593;SDS011;43423;46.510;6.686;2023-07-09T06:24:21;10.35;;;5.30;;
57593;SDS011;43423;46.510;6.686;2023-07-09T06:26:47;13.68;;;5.50;;
57593;SDS011;43423;46.510;6.686;2023-07-09T06:29:13;9.38;;;5.22;;
57593;SDS011;43423;46.510;6.686;2023-07-09T06:31:38;10.98;;;6.30;;
57593;SDS011;43423;46.510;6.686;2023-07-09T06:34:05;12.57;;;5.53;;
57593;SDS011;43423;46.510;6.686;2023-07-09T06:36:32;11.13;;;5.90;;
57593;SDS011;43423;46.510;6.686;2023-07-09T06:38:58;11.27;;;5.38;;
57593;SDS011;43423;46.510;6.686;2023-07-09T06:41:24;13.02;;;5.18;;
57593;SDS011;43423;46.510;6.686;2023-07-09T06:43:49;9.88;;;5.85;;
57593;SDS011;43423;46.510;6.686;2023-07-09T06:46:17;9.40;;;5.32;;
57593;SDS011;43423;46.510;6.686;2023-07-09T06:48:44;12.07;;;5.93;;
57593;SDS011;43423;46.510;6.686;2023-07-09T06:51:09;12.52;;;5.57;;
57593;SDS011;43423;46.510;6.686;2023-07-09T06:53:35;10.07;;;5.95;;
57593;SDS011;43423;46.510;6.686;2023-07-09T06:56:01;11.32;;;5.95;;
57593;SDS011;43423;46.510;6.686;2023-07-09T06:58:27;10.48;;;6.05;;
57593;SDS011;43423;46.510;6.686;2023-07-09T07:00:57;13.88;;;6.50;;
57593;SDS011;43423;46.510;6.686;2023-07-09T07:03:22;12.77;;;6.05;;
57593;SDS011;43423;46.510;6.686;2023-07-09T07:05:49;12.85;;;5.57;;
57593;SDS011;43423;46.510;6.686;2023-07-09T07:08:19;10.33;;;5.60;;
57593;SDS011;43423;46.510;6.686;2023-07-09T07:10:50;14.48;;;6.22;;
57593;SDS011;43423;46.510;6.686;2023-07-09T07:13:23;10.70;;;5.75;;
57593;SDS011;43423;46.510;6.686;2023-07-09T07:15:49;14.32;;;5.95;;
57593;SDS011;43423;46.510;6.686;2023-07-09T07:18:14;10.07;;;5.25;;
57593;SDS011;43423;46.510;6.686;2023-07-09T07:20:40;8.82;;;5.60;;
57593;SDS011;43423;46.510;6.686;2023-07-09T07:23:06;10.90;;;5.80;;
57593;SDS011;43423;46.510;6.686;2023-07-09T07:25:32;10.98;;;5.40;;
57593;SDS011;43423;46.510;6.686;2023-07-09T07:27:58;14.05;;;6.45;;
57593;SDS011;43423;46.510;6.686;2023-07-09T07:30:24;13.85;;;6.20;;
57593;SDS011;43423;46.510;6.686;2023-07-09T07:32:49;12.70;;;6.50;;
57593;SDS011;43423;46.510;6.686;2023-07-09T07:35:15;11.98;;;5.97;;
57593;SDS011;43423;46.510;6.686;2023-07-09T07:37:42;13.63;;;6.00;;
57593;SDS011;43423;46.510;6.686;2023-07-09T07:40:08;13.63;;;6.38;;
57593;SDS011;43423;46.510;6.686;2023-07-09T07:42:34;10.85;;;6.25;;
57593;SDS011;43423;46.510;6.686;2023-07-09T07:45:00;11.38;;;5.68;;
57593;SDS011;43423;46.510;6.686;2023-07-09T07:47:26;11.60;;;6.10;;
57593;SDS011;43423;46.510;6.686;2023-07-09T07:49:52;17.45;;;6.72;;
57593;SDS011;43423;46.510;6.686;2023-07-09T07:52:18;12.10;;;7.18;;
57593;SDS011;43423;46.510;6.686;2023-07-09T07:54:44;13.55;;;6.43;;
57593;SDS011;43423;46.510;6.686;2023-07-09T07:57:10;11.43;;;6.70;;
57593;SDS011;43423;46.510;6.686;2023-07-09T07:59:36;10.13;;;6.38;;
57593;SDS011;43423;46.510;6.686;2023-07-09T08:02:02;14.02;;;6.40;;
57593;SDS011;43423;46.510;6.686;2023-07-09T08:04:29;9.75;;;6.10;;
57593;SDS011;43423;46.510;6.686;2023-07-09T08:06:55;10.90;;;6.07;;
57593;SDS011;43423;46.510;6.686;2023-07-09T08:09:20;12.23;;;6.20;;
57593;SDS011;43423;46.510;6.686;2023-07-09T08:11:46;10.93;;;6.18;;
57593;SDS011;43423;46.510;6.686;2023-07-09T08:14:12;11.70;;;6.55;;
57593;SDS011;43423;46.510;6.686;2023-07-09T08:16:37;13.43;;;6.30;;
57593;SDS011;43423;46.510;6.686;2023-07-09T08:19:04;13.88;;;6.75;;
57593;SDS011;43423;46.510;6.686;2023-07-09T08:21:30;10.18;;;6.78;;
57593;SDS011;43423;46.510;6.686;2023-07-09T08:23:56;13.10;;;6.70;;
57593;SDS011;43423;46.510;6.686;2023-07-09T08:26:22;13.05;;;6.85;;
57593;SDS011;43423;46.510;6.686;2023-07-09T08:28:50;13.48;;;6.55;;
57593;SDS011;43423;46.510;6.686;2023-07-09T08:31:16;10.93;;;6.38;;
57593;SDS011;43423;46.510;6.686;2023-07-09T08:33:42;11.27;;;6.50;;
57593;SDS011;43423;46.510;6.686;2023-07-09T08:36:08;13.50;;;6.30;;
57593;SDS011;43423;46.510;6.686;2023-07-09T08:38:34;8.68;;;6.13;;
57593;SDS011;43423;46.510;6.686;2023-07-09T08:41:00;10.73;;;5.80;;
57593;SDS011;43423;46.510;6.686;2023-07-09T08:43:35;9.75;;;6.32;;
57593;SDS011;43423;46.510;6.686;2023-07-09T08:48:53;9.80;;;5.45;;
57593;SDS011;43423;46.510;6.686;2023-07-09T08:51:28;15.15;;;6.97;;
57593;SDS011;43423;46.510;6.686;2023-07-09T08:54:00;13.52;;;6.60;;
57593;SDS011;43423;46.510;6.686;2023-07-09T08:56:26;13.88;;;5.75;;
57593;SDS011;43423;46.510;6.686;2023-07-09T08:58:56;12.95;;;6.75;;
57593;SDS011;43423;46.510;6.686;2023-07-09T09:01:36;12.77;;;6.30;;
57593;SDS011;43423;46.510;6.686;2023-07-09T09:04:08;12.10;;;5.97;;
57593;SDS011;43423;46.510;6.686;2023-07-09T09:06:44;13.45;;;6.05;;
57593;SDS011;43423;46.510;6.686;2023-07-09T09:15:15;12.30;;;6.43;;
57593;SDS011;43423;46.510;6.686;2023-07-09T09:17:43;10.85;;;5.63;;
57593;SDS011;43423;46.510;6.686;2023-07-09T09:20:10;10.82;;;6.05;;
57593;SDS011;43423;46.510;6.686;2023-07-09T09:22:54;11.40;;;6.07;;
57593;SDS011;43423;46.510;6.686;2023-07-09T09:25:35;14.88;;;6.20;;
57593;SDS011;43423;46.510;6.686;2023-07-09T09:28:05;14.38;;;6.53;;
57593;SDS011;43423;46.510;6.686;2023-07-09T09:30:30;9.43;;;5.97;;
57593;SDS011;43423;46.510;6.686;2023-07-09T09:32:57;12.45;;;5.97;;
57593;SDS011;43423;46.510;6.686;2023-07-09T09:35:28;13.07;;;6.88;;
57593;SDS011;43423;46.510;6.686;2023-07-09T09:37:59;9.70;;;6.03;;
57593;SDS011;43423;46.510;6.686;2023-07-09T09:40:25;11.88;;;6.30;;
57593;SDS011;43423;46.510;6.686;2023-07-09T09:42:53;11.23;;;6.45;;
57593;SDS011;43423;46.510;6.686;2023-07-09T09:45:24;12.13;;;6.28;;
57593;SDS011;43423;46.510;6.686;2023-07-09T09:47:57;11.43;;;6.13;;
57593;SDS011;43423;46.510;6.686;2023-07-09T09:50:24;12.43;;;5.80;;
57593;SDS011;43423;46.510;6.686;2023-07-09T09:52:55;8.68;;;5.43;;
57593;SDS011;43423;46.510;6.686;2023-07-09T09:55:24;12.65;;;6.28;;
57593;SDS011;43423;46.510;6.686;2023-07-09T09:57:54;14.02;;;6.88;;
57593;SDS011;43423;46.510;6.686;2023-07-09T10:00:25;15.20;;;6.25;;
57593;SDS011;43423;46.510;6.686;2023-07-09T10:02:59;13.45;;;5.85;;
57593;SDS011;43423;46.510;6.686;2023-07-09T10:05:34;11.45;;;5.90;;
57593;SDS011;43423;46.510;6.686;2023-07-09T10:11:01;14.90;;;6.90;;
57593;SDS011;43423;46.510;6.686;2023-07-09T10:13:38;12.07;;;6.20;;
57593;SDS011;43423;46.510;6.686;2023-07-09T10:16:10;11.38;;;6.28;;
57593;SDS011;43423;46.510;6.686;2023-07-09T10:18:50;12.70;;;6.25;;
57593;SDS011;43423;46.510;6.686;2023-07-09T10:21:27;13.27;;;6.03;;
57593;SDS011;43423;46.510;6.686;2023-07-09T10:24:16;15.15;;;7.30;;
57593;SDS011;43423;46.510;6.686;2023-07-09T10:29:58;13.77;;;6.97;;
57593;SDS011;43423;46.510;6.686;2023-07-09T10:33:00;12.68;;;6.18;;
57593;SDS011;43423;46.510;6.686;2023-07-09T10:38:20;11.43;;;6.22;;
57593;SDS011;43423;46.510;6.686;2023-07-09T10:40:54;10.88;;;6.53;;
57593;SDS011;43423;46.510;6.686;2023-07-09T10:43:45;11.73;;;6.63;;
57593;SDS011;43423;46.510;6.686;2023-07-09T10:46:13;12.25;;;6.43;;
57593;SDS011;43423;46.510;6.686;2023-07-09T10:48:43;13.07;;;5.57;;
57593;SDS011;43423;46.510;6.686;2023-07-09T10:56:28;12.20;;;5.85;;
57593;SDS011;43423;46.510;6.686;2023-07-09T11:01:45;16.63;;;6.82;;
57593;SDS011;43423;46.510;6.686;2023-07-09T11:04:25;10.10;;;6.18;;
57593;SDS011;43423;46.510;6.686;2023-07-09T11:06:54;10.48;;;6.53;;
57593;SDS011;43423;46.510;6.686;2023-07-09T11:09:29;13.57;;;6.80;;
57593;SDS011;43423;46.510;6.686;2023-07-09T11:11:59;14.98;;;6.35;;
57593;SDS011;43423;46.510;6.686;2023-07-09T11:14:48;13.18;;;6.40;;
57593;SDS011;43423;46.510;6.686;2023-07-09T11:17:15;11.43;;;6.28;;
57593;SDS011;43423;46.510;6.686;2023-07-09T11:19:48;14.90;;;6.20;;
57593;SDS011;43423;46.510;6.686;2023-07-09T11:22:39;14.40;;;6.05;;
57593;SDS011;43423;46.510;6.686;2023-07-09T11:25:07;11.82;;;6.10;;
57593;SDS011;43423;46.510;6.686;2023-07-09T11:27:45;12.82;;;6.13;;
57593;SDS011;43423;46.510;6.686;2023-07-09T11:32:52;12.02;;;5.80;;
57593;SDS011;43423;46.510;6.686;2023-07-09T11:35:21;13.75;;;5.93;;
57593;SDS011;43423;46.510;6.686;2023-07-09T11:37:49;13.27;;;5.47;;
57593;SDS011;43423;46.510;6.686;2023-07-09T11:40:16;11.95;;;5.68;;
57593;SDS011;43423;46.510;6.686;2023-07-09T11:45:13;9.77;;;5.50;;
57593;SDS011;43423;46.510;6.686;2023-07-09T11:47:45;9.68;;;5.97;;
57593;SDS011;43423;46.510;6.686;2023-07-09T11:50:23;12.75;;;5.93;;
57593;SDS011;43423;46.510;6.686;2023-07-09T11:52:58;13.90;;;5.72;;
57593;SDS011;43423;46.510;6.686;2023-07-09T11:55:44;9.20;;;5.93;;
57593;SDS011;43423;46.510;6.686;2023-07-09T11:58:13;13.07;;;5.68;;
57593;SDS011;43423;46.510;6.686;2023-07-09T12:00:41;10.30;;;5.60;;
57593;SDS011;43423;46.510;6.686;2023-07-09T12:03:17;14.85;;;5.65;;
57593;SDS011;43423;46.510;6.686;2023-07-09T12:05:50;13.73;;;5.45;;
57593;SDS011;43423;46.510;6.686;2023-07-09T12:08:18;13.48;;;5.95;;
57593;SDS011;43423;46.510;6.686;2023-07-09T12:11:24;11.25;;;5.40;;
57593;SDS011;43423;46.510;6.686;2023-07-09T12:14:00;10.70;;;5.60;;
57593;SDS011;43423;46.510;6.686;2023-07-09T12:16:41;10.45;;;5.78;;
57593;SDS011;43423;46.510;6.686;2023-07-09T12:19:10;12.48;;;5.55;;
57593;SDS011;43423;46.510;6.686;2023-07-09T12:21:38;13.55;;;6.07;;
57593;SDS011;43423;46.510;6.686;2023-07-09T12:24:16;11.57;;;5.60;;
57593;SDS011;43423;46.510;6.686;2023-07-09T12:26:53;11.15;;;5.50;;
57593;SDS011;43423;46.510;6.686;2023-07-09T12:29:30;15.18;;;5.40;;
57593;SDS011;43423;46.510;6.686;2023-07-09T12:32:02;15.55;;;5.80;;
57593;SDS011;43423;46.510;6.686;2023-07-09T12:34:35;9.90;;;5.68;;
57593;SDS011;43423;46.510;6.686;2023-07-09T12:37:01;15.55;;;6.10;;
57593;SDS011;43423;46.510;6.686;2023-07-09T12:39:27;13.32;;;6.10;;
57593;SDS011;43423;46.510;6.686;2023-07-09T12:41:56;14.18;;;5.93;;
57593;SDS011;43423;46.510;6.686;2023-07-09T12:44:24;10.65;;;5.70;;
57593;SDS011;43423;46.510;6.686;2023-07-09T12:46:52;11.35;;;5.53;;
57593;SDS011;43423;46.510;6.686;2023-07-09T12:49:23;12.10;;;6.10;;
57593;SDS011;43423;46.510;6.686;2023-07-09T12:51:53;13.15;;;5.68;;
57593;SDS011;43423;46.510;6.686;2023-07-09T12:54:20;17.02;;;5.95;;
57593;SDS011;43423;46.510;6.686;2023-07-09T12:56:46;11.73;;;6.00;;
57593;SDS011;43423;46.510;6.686;2023-07-09T12:59:50;11.38;;;5.65;;
57593;SDS011;43423;46.510;6.686;2023-07-09T13:04:41;16.42;;;5.80;;
57593;SDS011;43423;46.510;6.686;2023-07-09T13:07:25;14.10;;;5.63;;
57593;SDS011;43423;46.510;6.686;2023-07-09T13:09:53;14.10;;;6.13;;
57593;SDS011;43423;46.510;6.686;2023-07-09T13:12:21;12.98;;;6.30;;
57593;SDS011;43423;46.510;6.686;2023-07-09T13:14:54;8.90;;;5.13;;
57593;SDS011;43423;46.510;6.686;2023-07-09T13:17:21;17.27;;;6.30;;
57593;SDS011;43423;46.510;6.686;2023-07-09T13:19:46;14.13;;;6.93;;
57593;SDS011;43423;46.510;6.686;2023-07-09T13:22:16;11.75;;;6.43;;
57593;SDS011;43423;46.510;6.686;2023-07-09T13:24:44;14.73;;;7.10;;
57593;SDS011;43423;46.510;6.686;2023-07-09T13:27:13;18.02;;;7.65;;
57593;SDS011;43423;46.510;6.686;2023-07-09T13:29:40;14.23;;;6.40;;
57593;SDS011;43423;46.510;6.686;2023-07-09T13:32:10;13.25;;;6.47;;
57593;SDS011;43423;46.510;6.686;2023-07-09T13:37:04;16.70;;;6.70;;
57593;SDS011;43423;46.510;6.686;2023-07-09T13:39:31;12.38;;;6.88;;
57593;SDS011;43423;46.510;6.686;2023-07-09T13:41:56;18.27;;;6.90;;
57593;SDS011;43423;46.510;6.686;2023-07-09T13:44:23;16.05;;;7.22;;
57593;SDS011;43423;46.510;6.686;2023-07-09T13:46:51;14.63;;;6.65;;
57593;SDS011;43423;46.510;6.686;2023-07-09T13:49:17;11.60;;;6.55;;
57593;SDS011;43423;46.510;6.686;2023-07-09T13:51:45;15.07;;;7.22;;
57593;SDS011;43423;46.510;6.686;2023-07-09T13:54:17;15.55;;;7.85;;
57593;SDS011;43423;46.510;6.686;2023-07-09T13:56:45;14.00;;;6.50;;
57593;SDS011;43423;46.510;6.686;2023-07-09T13:59:16;18.17;;;6.93;;
57593;SDS011;43423;46.510;6.686;2023-07-09T14:01:54;12.88;;;7.22;;
57593;SDS011;43423;46.510;6.686;2023-07-09T14:04:21;12.85;;;7.70;;
57593;SDS011;43423;46.510;6.686;2023-07-09T14:06:47;20.42;;;7.78;;
57593;SDS011;43423;46.510;6.686;2023-07-09T14:09:14;13.55;;;7.97;;
57593;SDS011;43423;46.510;6.686;2023-07-09T14:11:50;13.98;;;6.60;;
57593;SDS011;43423;46.510;6.686;2023-07-09T14:14:22;11.75;;;7.00;;
57593;SDS011;43423;46.510;6.686;2023-07-09T14:16:50;14.93;;;7.35;;
57593;SDS011;43423;46.510;6.686;2023-07-09T14:19:17;13.80;;;7.85;;
57593;SDS011;43423;46.510;6.686;2023-07-09T14:21:45;16.58;;;7.55;;
57593;SDS011;43423;46.510;6.686;2023-07-09T14:24:16;16.23;;;7.20;;
57593;SDS011;43423;46.510;6.686;2023-07-09T14:26:44;15.50;;;9.05;;
57593;SDS011;43423;46.510;6.686;2023-07-09T14:29:11;18.48;;;8.48;;
57593;SDS011;43423;46.510;6.686;2023-07-09T14:31:39;16.10;;;7.97;;
57593;SDS011;43423;46.510;6.686;2023-07-09T14:34:16;13.90;;;7.50;;
57593;SDS011;43423;46.510;6.686;2023-07-09T14:36:42;18.55;;;8.00;;
57593;SDS011;43423;46.510;6.686;2023-07-09T14:39:09;10.40;;;6.40;;
57593;SDS011;43423;46.510;6.686;2023-07-09T14:41:35;13.27;;;7.13;;
57593;SDS011;43423;46.510;6.686;2023-07-09T14:44:01;16.52;;;8.57;;
57593;SDS011;43423;46.510;6.686;2023-07-09T14:46:27;14.48;;;7.03;;
57593;SDS011;43423;46.510;6.686;2023-07-09T14:48:53;13.30;;;7.43;;
57593;SDS011;43423;46.510;6.686;2023-07-09T14:51:19;17.40;;;7.75;;
57593;SDS011;43423;46.510;6.686;2023-07-09T14:53:45;12.05;;;6.22;;
57593;SDS011;43423;46.510;6.686;2023-07-09T14:56:12;17.77;;;6.63;;
57593;SDS011;43423;46.510;6.686;2023-07-09T14:58:39;13.98;;;7.32;;
57593;SDS011;43423;46.510;6.686;2023-07-09T15:01:05;13.98;;;6.85;;
57593;SDS011;43423;46.510;6.686;2023-07-09T15:03:36;14.10;;;6.70;;
57593;SDS011;43423;46.510;6.686;2023-07-09T15:06:02;15.88;;;6.90;;
57593;SDS011;43423;46.510;6.686;2023-07-09T15:08:27;16.15;;;8.07;;
57593;SDS011;43423;46.510;6.686;2023-07-09T15:10:53;12.23;;;7.03;;
57593;SDS011;43423;46.510;6.686;2023-07-09T15:13:30;14.27;;;7.53;;
57593;SDS011;43423;46.510;6.686;2023-07-09T15:16:02;13.77;;;6.72;;
57593;SDS011;43423;46.510;6.686;2023-07-09T15:20:56;10.60;;;6.40;;
57593;SDS011;43423;46.510;6.686;2023-07-09T15:23:24;15.30;;;5.93;;
57593;SDS011;43423;46.510;6.686;2023-07-09T15:25:50;11.60;;;6.60;;